Kirksville, MO

12:27 PM CST on February 09, 2016 (GMT -0600)
Kirksville Regional | | Change Station
CLOSE
Current Station
Airport
Location: Kirksville,
Elevation: 965 ft
Nearby Weather Stations

Elev 965 ft 40.10 °N, 92.55 °W | Updated 32 minutes ago

Light Snow
Light Snow
22 °F
Feels Like 8 °F
N
16
Wind Variable Wind from NW
Gusts 29 mph

Today
High -- | Low -- °F
--% Chance of Precip.
Yesterday
High -- | Low -- °F
Precip. -- in
Pressure 30.14 in
Visibility 9.0 miles
Clouds Clear
Windchill 8 °F
Dew Point 6 °F
Humidity 51%
Rainfall 0.00 in
Snow Depth Not available.
7:10 AM 5:38 PM
New Moon, 2% visible
METAR KIRK 091755Z AUTO 31014G25KT 9SM -SN CLR M06/M14 A3009 RMK AO2 PK WND 31027/1700 SLP206 P0000 60000 T10561144 11056 21106 51009
Pressure 30.14 in
Visibility 9.0 miles
Clouds Clear
Windchill 8 °F
Dew Point 6 °F
Humidity 51%
Rainfall 0.00 in
Snow Depth Not available.
7:10 AM 5:38 PM
New Moon, 2% visible
METAR KIRK 091755Z AUTO 31014G25KT 9SM -SN CLR M06/M14 A3009 RMK AO2 PK WND 31027/1700 SLP206 P0000 60000 T10561144 11056 21106 51009

10-Day Weather Forecast

Almanac

Astronomy

Feb. 09, 2016 Rise Set
Actual Time
Civil Twilight
Nautical Twilight
Astronomical Twilight
Moon
Length of Visible Light
Length of Day
Tomorrow will be .
, % of the Moon is Illuminated

Today's Extremes

State Highs State Lows

Community

WunderPhotos

Upload Photos

1,891,655 photos uploaded!

WunderBlog® & News

Nearby

Air Quality

  Air Quality AQ Index Pollutant
Not available.

Snow Depth

Station Depth Elevation

Earthquake Activity

City Distance Mag. Time & Date
Minimum magnitude displayed is 2.5.

Coastal Water Temperatures

Place Temperature

Stations

Nearby Weather Stations

Station Location Temp. Windchill Dew Point Humidity Wind Precip. Elev Updated Type
                   

Watches & Warnings

There are currently no watches in effect.